createdAt,value
2022-12-12T00:01:25.909Z,9.27
2022-12-12T00:04:12.000Z,9.50
2022-12-12T00:06:57.726Z,9.07
2022-12-12T00:09:43.288Z,9.35
2022-12-12T00:12:28.775Z,9.07
2022-12-12T00:15:14.816Z,9.18
2022-12-12T00:18:00.667Z,9.45
2022-12-12T00:20:50.551Z,10.57
2022-12-12T00:23:36.407Z,9.05
2022-12-12T00:26:27.793Z,10.60
2022-12-12T00:29:13.435Z,9.85
2022-12-12T00:31:58.872Z,10.95
2022-12-12T00:34:44.875Z,10.10
2022-12-12T00:37:30.631Z,9.40
2022-12-12T00:40:16.346Z,10.40
2022-12-12T00:43:04.398Z,9.73
2022-12-12T00:45:50.019Z,10.32
2022-12-12T00:48:35.638Z,10.65
2022-12-12T00:51:23.376Z,11.40
2022-12-12T00:54:09.742Z,11.93
2022-12-12T00:56:55.077Z,11.55
2022-12-12T00:59:40.657Z,9.57
2022-12-12T01:02:28.338Z,10.70
2022-12-12T01:05:15.054Z,10.82
2022-12-12T01:08:00.755Z,12.07
2022-12-12T01:10:46.369Z,11.70
2022-12-12T01:13:31.979Z,10.70
2022-12-12T01:16:17.615Z,9.82
2022-12-12T01:19:03.690Z,12.40
2022-12-12T01:21:48.963Z,12.20
2022-12-12T01:24:34.917Z,11.07
2022-12-12T01:27:20.441Z,10.82
2022-12-12T01:30:07.514Z,11.27
2022-12-12T01:32:53.065Z,13.63
2022-12-12T01:35:38.686Z,10.57
2022-12-12T01:38:27.442Z,11.90
2022-12-12T01:41:13.428Z,11.10
2022-12-12T01:44:02.480Z,12.05
2022-12-12T01:46:47.962Z,12.07
2022-12-12T01:49:34.846Z,14.52
2022-12-12T01:52:23.703Z,12.70
2022-12-12T01:55:13.862Z,12.73
2022-12-12T01:58:00.297Z,12.95
2022-12-12T02:00:46.354Z,14.05
2022-12-12T02:03:32.503Z,14.35
2022-12-12T02:06:23.265Z,13.98
2022-12-12T02:09:11.123Z,13.05
2022-12-12T02:11:58.495Z,15.25
2022-12-12T02:14:50.076Z,14.98
2022-12-12T02:18:01.019Z,13.20
2022-12-12T02:20:57.441Z,11.82
2022-12-12T02:24:10.554Z,13.77
2022-12-12T02:26:58.966Z,12.82
2022-12-12T02:29:47.517Z,12.45
2022-12-12T02:32:50.949Z,12.23
2022-12-12T02:35:48.677Z,12.32
2022-12-12T02:38:58.406Z,13.07
2022-12-12T02:41:50.196Z,14.25
2022-12-12T02:45:17.651Z,12.48
2022-12-12T02:48:16.613Z,13.57
2022-12-12T02:51:04.682Z,14.57
2022-12-12T02:53:50.369Z,13.93
2022-12-12T02:56:49.231Z,13.07
2022-12-12T02:59:40.301Z,13.52
2022-12-12T03:02:37.599Z,14.32
2022-12-12T03:05:50.858Z,14.25
2022-12-12T03:08:45.094Z,13.98
2022-12-12T03:11:42.144Z,13.90
2022-12-12T03:14:40.023Z,14.05
2022-12-12T03:17:32.901Z,15.38
2022-12-12T03:20:42.760Z,14.10
2022-12-12T03:23:50.936Z,14.50
2022-12-12T03:26:46.107Z,15.80
2022-12-12T03:29:40.775Z,15.70
2022-12-12T03:32:39.770Z,14.90
2022-12-12T03:35:32.797Z,16.73
2022-12-12T03:38:23.109Z,15.20
2022-12-12T03:41:19.046Z,14.95
2022-12-12T03:44:12.140Z,18.27
2022-12-12T03:47:07.496Z,13.93
2022-12-12T03:54:31.600Z,17.90
2022-12-12T03:57:25.179Z,14.73
2022-12-12T04:00:15.103Z,16.25
2022-12-12T04:03:17.285Z,16.38
2022-12-12T04:06:28.190Z,15.43
2022-12-12T04:09:35.377Z,16.08
2022-12-12T04:12:48.317Z,15.15
2022-12-12T04:16:06.721Z,15.55
2022-12-12T04:19:02.302Z,14.52
2022-12-12T04:22:16.722Z,16.15
2022-12-12T04:25:17.171Z,16.30
2022-12-12T04:28:06.259Z,16.98
2022-12-12T04:30:51.828Z,16.83
2022-12-12T04:33:52.537Z,16.05
2022-12-12T04:36:38.044Z,17.80
2022-12-12T04:39:23.476Z,15.38
2022-12-12T04:42:11.875Z,16.20
2022-12-12T04:45:04.954Z,15.88
2022-12-12T04:47:52.905Z,15.82
2022-12-12T04:50:39.319Z,16.65
2022-12-12T04:53:35.244Z,15.57
2022-12-12T04:56:27.799Z,15.93
2022-12-12T04:59:13.203Z,17.73
2022-12-12T05:02:27.150Z,16.63
2022-12-12T05:05:35.279Z,14.88
2022-12-12T05:08:26.896Z,14.55
2022-12-12T05:11:13.362Z,15.95
2022-12-12T05:13:58.969Z,15.82
2022-12-12T05:16:52.001Z,15.60
2022-12-12T05:19:37.575Z,15.02
2022-12-12T05:22:23.038Z,16.55
2022-12-12T05:25:08.878Z,15.13
2022-12-12T05:27:54.414Z,13.95
2022-12-12T05:30:40.062Z,16.90
2022-12-12T05:33:25.461Z,15.38
2022-12-12T05:36:11.438Z,15.95
2022-12-12T05:38:57.075Z,17.52
2022-12-12T05:41:42.551Z,15.65
2022-12-12T05:44:28.166Z,14.63
2022-12-12T05:47:13.588Z,14.75
2022-12-12T05:49:59.108Z,15.73
2022-12-12T05:52:45.008Z,15.23
2022-12-12T05:55:30.235Z,13.77
2022-12-12T05:58:15.695Z,14.07
2022-12-12T06:01:04.060Z,17.20
2022-12-12T06:03:49.522Z,16.92
2022-12-12T06:06:35.290Z,15.95
2022-12-12T06:09:20.787Z,15.57
2022-12-12T06:12:06.351Z,15.15
2022-12-12T06:14:51.929Z,17.20
2022-12-12T06:17:37.305Z,15.10
2022-12-12T06:20:22.923Z,16.90
2022-12-12T06:23:08.500Z,16.73
2022-12-12T06:25:54.087Z,16.90
2022-12-12T06:28:39.669Z,15.93
2022-12-12T06:31:25.048Z,16.80
2022-12-12T06:34:10.615Z,16.60
2022-12-12T06:36:56.031Z,16.38
2022-12-12T06:39:41.652Z,14.18
2022-12-12T06:42:27.229Z,15.68
2022-12-12T06:45:13.075Z,15.77
2022-12-12T06:47:58.884Z,15.07
2022-12-12T06:50:45.825Z,14.23
2022-12-12T06:53:31.257Z,9.95
2022-12-12T06:56:20.086Z,14.20
2022-12-12T06:59:05.385Z,14.15
2022-12-12T07:01:50.924Z,12.00
2022-12-12T07:04:36.396Z,12.70
2022-12-12T07:07:22.176Z,12.15
2022-12-12T07:10:08.339Z,12.25
2022-12-12T07:12:57.448Z,10.70
2022-12-12T07:15:49.607Z,12.20
2022-12-12T07:18:35.982Z,12.85
2022-12-12T07:21:21.973Z,10.77
2022-12-12T07:24:07.620Z,11.30
2022-12-12T07:26:52.895Z,13.80
2022-12-12T07:29:38.640Z,13.68
2022-12-12T07:32:24.013Z,11.00
2022-12-12T07:35:09.766Z,11.05
2022-12-12T07:37:56.617Z,10.15
2022-12-12T07:40:42.360Z,9.95
2022-12-12T07:43:27.915Z,9.38
2022-12-12T07:46:20.184Z,11.25
2022-12-12T07:49:05.604Z,11.40
2022-12-12T07:51:51.020Z,9.25
2022-12-12T07:54:36.808Z,9.50
2022-12-12T07:57:22.288Z,9.82
2022-12-12T08:00:09.838Z,12.10
2022-12-12T08:02:55.413Z,12.23
2022-12-12T08:05:42.565Z,12.32
2022-12-12T08:08:28.039Z,12.50
2022-12-12T08:11:15.908Z,11.90
2022-12-12T08:14:01.121Z,14.98
2022-12-12T08:16:46.692Z,11.40
2022-12-12T08:19:33.166Z,15.80
2022-12-12T08:22:19.185Z,11.98
2022-12-12T08:25:05.612Z,11.02
2022-12-12T08:27:50.886Z,14.20
2022-12-12T08:30:36.466Z,11.15
2022-12-12T08:33:22.125Z,11.65
2022-12-12T08:36:15.595Z,9.57
2022-12-12T08:39:09.898Z,9.90
2022-12-12T08:41:55.310Z,9.00
2022-12-12T08:44:41.095Z,8.63
2022-12-12T08:47:26.298Z,8.63
2022-12-12T08:50:12.447Z,7.97
2022-12-12T08:52:57.812Z,7.53
2022-12-12T08:55:43.258Z,8.32
2022-12-12T08:58:28.733Z,8.15
2022-12-12T09:01:25.660Z,9.60
2022-12-12T09:04:11.501Z,9.80
2022-12-12T09:06:56.922Z,8.65
2022-12-12T09:09:42.488Z,10.82
2022-12-12T09:12:28.530Z,8.25
2022-12-12T09:15:14.695Z,9.55
2022-12-12T09:18:00.742Z,9.60
2022-12-12T09:20:54.663Z,10.00
2022-12-12T09:23:40.348Z,9.93
2022-12-12T09:26:26.132Z,10.70
2022-12-12T09:29:12.967Z,8.30
2022-12-12T09:31:58.447Z,9.75
2022-12-12T09:34:43.989Z,7.40
2022-12-12T09:37:29.443Z,8.98
2022-12-12T09:40:26.158Z,9.05
2022-12-12T09:43:17.192Z,9.85
2022-12-12T09:46:05.432Z,11.15
2022-12-12T09:48:51.131Z,9.55
2022-12-12T09:51:36.960Z,9.88
2022-12-12T09:54:25.928Z,10.68
2022-12-12T09:57:24.829Z,10.10
2022-12-12T10:00:15.114Z,10.57
2022-12-12T10:03:26.133Z,8.82
2022-12-12T10:06:36.485Z,9.73
2022-12-12T10:09:56.448Z,8.65
2022-12-12T10:12:42.479Z,9.97
2022-12-12T10:15:36.459Z,9.50
2022-12-12T10:18:53.372Z,9.68
2022-12-12T10:21:40.938Z,8.88
2022-12-12T10:24:53.330Z,9.68
2022-12-12T10:27:38.818Z,8.93
2022-12-12T10:30:24.579Z,7.82
2022-12-12T10:33:23.330Z,7.72
2022-12-12T10:36:34.803Z,6.63
2022-12-12T10:39:24.965Z,7.72
2022-12-12T10:42:37.124Z,7.22
2022-12-12T10:45:45.092Z,6.85
2022-12-12T10:48:30.717Z,7.05
2022-12-12T10:51:20.310Z,7.97
2022-12-12T10:54:17.952Z,7.80
2022-12-12T10:57:19.865Z,6.65
2022-12-12T11:00:27.064Z,8.30
2022-12-12T11:03:29.377Z,8.00
2022-12-12T11:06:31.587Z,9.20
2022-12-12T11:09:22.809Z,10.45
2022-12-12T11:12:15.449Z,8.68
2022-12-12T11:15:14.206Z,9.38
2022-12-12T11:18:05.732Z,10.45
2022-12-12T11:21:21.321Z,9.52
2022-12-12T11:24:16.377Z,8.80
2022-12-12T11:27:05.687Z,10.95
2022-12-12T11:29:54.440Z,9.98
2022-12-12T11:32:42.868Z,9.25
2022-12-12T11:35:45.611Z,10.73
2022-12-12T11:38:39.905Z,11.20
2022-12-12T11:41:25.693Z,9.50
2022-12-12T11:44:25.687Z,8.50
2022-12-12T11:47:21.867Z,11.05
2022-12-12T11:50:44.146Z,11.85
2022-12-12T11:53:30.117Z,12.32
2022-12-12T11:56:28.847Z,11.10
2022-12-12T11:59:22.255Z,13.18
2022-12-12T12:05:37.239Z,10.68
2022-12-12T12:08:35.520Z,11.73
2022-12-12T12:11:33.846Z,12.45
2022-12-12T12:14:38.292Z,11.48
2022-12-12T12:18:12.006Z,11.60
2022-12-12T12:21:21.188Z,9.47
2022-12-12T12:24:33.851Z,11.30
2022-12-12T12:28:04.360Z,11.50
2022-12-12T12:31:10.862Z,12.82
2022-12-12T12:33:59.613Z,11.77
2022-12-12T12:40:51.724Z,13.13
2022-12-12T12:43:53.505Z,13.70
2022-12-12T12:47:35.549Z,13.73
2022-12-12T12:51:17.445Z,13.73
2022-12-12T12:59:00.023Z,13.85
2022-12-12T13:01:51.647Z,12.98
2022-12-12T13:04:48.571Z,13.55
2022-12-12T13:08:05.376Z,14.82
2022-12-12T13:11:00.031Z,14.32
2022-12-12T13:13:48.823Z,14.52
2022-12-12T13:16:34.704Z,14.73
2022-12-12T13:19:53.527Z,15.63
2022-12-12T13:22:42.282Z,14.00
2022-12-12T13:25:46.456Z,15.35
2022-12-12T13:28:41.969Z,15.63
2022-12-12T13:31:30.628Z,16.75
2022-12-12T13:34:22.129Z,17.13
2022-12-12T13:37:07.959Z,14.20
2022-12-12T13:40:05.164Z,15.40
2022-12-12T13:42:57.822Z,16.10
2022-12-12T13:45:46.050Z,15.60
2022-12-12T13:48:46.169Z,16.27
2022-12-12T13:51:34.775Z,14.38
2022-12-12T13:54:20.598Z,14.45
2022-12-12T13:57:12.221Z,14.45
2022-12-12T13:59:57.728Z,14.00
2022-12-12T14:02:53.309Z,15.32
2022-12-12T14:05:44.589Z,16.15
2022-12-12T14:08:33.784Z,16.52
2022-12-12T14:11:38.030Z,17.33
2022-12-12T14:14:25.218Z,20.30
2022-12-12T14:17:22.259Z,19.42
2022-12-12T14:20:08.320Z,18.67
2022-12-12T14:22:59.904Z,18.73
2022-12-12T14:25:45.997Z,19.15
2022-12-12T14:28:33.452Z,20.45
2022-12-12T14:31:19.930Z,19.20
2022-12-12T14:34:05.988Z,19.75
2022-12-12T14:37:22.128Z,20.13
2022-12-12T14:40:30.835Z,19.45
2022-12-12T14:43:26.601Z,22.50
2022-12-12T14:46:19.829Z,19.67
2022-12-12T14:49:06.177Z,20.25
2022-12-12T14:51:56.274Z,22.15
2022-12-12T14:54:42.348Z,21.60
2022-12-12T14:57:28.688Z,22.05
2022-12-12T15:00:19.554Z,22.65
2022-12-12T15:03:05.217Z,23.30
2022-12-12T15:06:29.642Z,23.50
2022-12-12T15:09:34.436Z,23.88
2022-12-12T15:12:23.533Z,28.63
2022-12-12T15:15:27.669Z,22.90
2022-12-12T15:18:17.943Z,22.45
2022-12-12T15:21:04.535Z,24.65
2022-12-12T15:23:50.338Z,22.95
2022-12-12T15:26:36.236Z,21.67
2022-12-12T15:29:31.189Z,23.63
2022-12-12T15:32:23.054Z,19.20
2022-12-12T15:35:08.926Z,23.33
2022-12-12T15:38:03.474Z,22.15
2022-12-12T15:40:54.861Z,22.48
2022-12-12T15:43:41.389Z,22.33
2022-12-12T15:46:28.637Z,21.75
2022-12-12T15:49:40.536Z,24.63
2022-12-12T15:52:29.145Z,22.05
2022-12-12T15:55:21.439Z,21.75
2022-12-12T15:58:25.071Z,22.20
2022-12-12T16:01:20.323Z,19.42
2022-12-12T16:04:10.810Z,21.30
2022-12-12T16:07:20.304Z,21.65
2022-12-12T16:10:12.551Z,21.63
2022-12-12T16:13:35.455Z,23.23
2022-12-12T16:16:42.893Z,20.92
2022-12-12T16:19:40.721Z,23.20
2022-12-12T16:22:46.086Z,20.35
2022-12-12T16:25:34.943Z,20.90
2022-12-12T16:28:25.680Z,19.80
2022-12-12T16:31:17.482Z,21.10
2022-12-12T16:34:04.485Z,21.88
2022-12-12T16:36:49.827Z,21.33
2022-12-12T16:39:36.060Z,21.15
2022-12-12T16:42:24.042Z,21.85
2022-12-12T16:45:12.043Z,20.52
2022-12-12T16:47:58.527Z,20.15
2022-12-12T16:50:44.960Z,20.88
2022-12-12T16:53:31.638Z,19.98
2022-12-12T16:56:17.547Z,19.27
2022-12-12T16:59:02.825Z,21.73
2022-12-12T17:01:48.364Z,18.15
2022-12-12T17:04:33.916Z,17.13
2022-12-12T17:07:19.721Z,19.13
2022-12-12T17:10:06.143Z,18.95
2022-12-12T17:12:55.205Z,19.58
2022-12-12T17:15:40.554Z,21.92
2022-12-12T17:18:26.138Z,19.65
2022-12-12T17:21:11.636Z,14.65
2022-12-12T17:23:57.201Z,18.67
2022-12-12T17:26:43.006Z,18.83
2022-12-12T17:29:28.391Z,19.08
2022-12-12T17:32:14.264Z,18.50
2022-12-12T17:35:01.758Z,19.13
2022-12-12T17:37:50.595Z,20.55
2022-12-12T17:40:36.439Z,19.05
2022-12-12T17:43:22.770Z,18.42
2022-12-12T17:46:14.917Z,17.83
2022-12-12T17:49:02.925Z,18.10
2022-12-12T17:51:49.583Z,18.63
2022-12-12T17:54:37.020Z,18.17
2022-12-12T17:57:25.432Z,17.77
2022-12-12T18:00:12.018Z,18.23
2022-12-12T18:02:59.585Z,19.67
2022-12-12T18:05:46.919Z,20.27
2022-12-12T18:08:34.953Z,21.25
2022-12-12T18:11:25.211Z,17.90
2022-12-12T18:14:21.127Z,15.65
2022-12-12T18:17:06.947Z,17.98
2022-12-12T18:19:56.867Z,16.60
2022-12-12T18:22:43.542Z,15.70
2022-12-12T18:25:29.850Z,14.55
2022-12-12T18:28:15.858Z,14.23
2022-12-12T18:31:04.962Z,16.10
2022-12-12T18:33:51.761Z,15.73
2022-12-12T18:36:37.436Z,13.30
2022-12-12T18:39:23.056Z,16.25
2022-12-12T18:42:08.592Z,16.17
2022-12-12T18:44:54.119Z,17.02
2022-12-12T18:47:39.621Z,15.25
2022-12-12T18:50:25.191Z,16.23
2022-12-12T18:53:10.719Z,16.02
2022-12-12T18:55:56.453Z,17.45
2022-12-12T18:58:42.660Z,16.27
2022-12-12T19:01:34.306Z,18.40
2022-12-12T19:04:23.504Z,18.17
2022-12-12T19:07:09.418Z,17.73
2022-12-12T19:09:54.656Z,17.90
2022-12-12T19:12:40.221Z,18.02
2022-12-12T19:15:25.812Z,16.83
2022-12-12T19:18:11.470Z,17.17
2022-12-12T19:20:57.020Z,17.40
2022-12-12T19:23:43.240Z,18.08
2022-12-12T19:26:29.666Z,17.35
2022-12-12T19:29:18.059Z,18.02
2022-12-12T19:32:03.679Z,17.45
2022-12-12T19:34:49.313Z,18.73
2022-12-12T19:37:36.118Z,16.17
2022-12-12T19:40:22.359Z,17.85
2022-12-12T19:43:07.805Z,16.73
2022-12-12T19:46:05.640Z,17.60
2022-12-12T19:48:56.825Z,18.75
2022-12-12T19:51:44.852Z,17.85
2022-12-12T19:54:30.380Z,16.90
2022-12-12T19:57:16.179Z,19.95
2022-12-12T20:00:01.653Z,17.80
2022-12-12T20:02:47.385Z,18.33
2022-12-12T20:05:33.459Z,18.30
2022-12-12T20:08:18.984Z,17.42
2022-12-12T20:11:05.752Z,18.40
2022-12-12T20:13:53.234Z,19.63
2022-12-12T20:16:39.044Z,20.42
2022-12-12T20:19:26.911Z,17.67
2022-12-12T20:22:12.359Z,17.40
2022-12-12T20:24:57.928Z,19.30
2022-12-12T20:27:43.445Z,16.73
2022-12-12T20:30:28.989Z,17.48
2022-12-12T20:33:14.588Z,16.98
2022-12-12T20:36:13.786Z,17.55
2022-12-12T20:39:02.259Z,17.13
2022-12-12T20:41:48.825Z,17.05
2022-12-12T20:44:34.137Z,17.52
2022-12-12T20:47:20.798Z,16.50
2022-12-12T20:50:06.727Z,19.38
2022-12-12T20:52:52.156Z,18.23
2022-12-12T20:55:37.737Z,16.45
2022-12-12T20:58:23.247Z,18.60
2022-12-12T21:01:23.577Z,17.63
2022-12-12T21:04:09.688Z,17.55
2022-12-12T21:06:54.983Z,17.05
2022-12-12T21:09:40.474Z,16.80
2022-12-12T21:12:25.804Z,19.30
2022-12-12T21:15:11.492Z,17.48
2022-12-12T21:17:57.055Z,19.70
2022-12-12T21:20:44.773Z,18.33
2022-12-12T21:23:30.447Z,19.58
2022-12-12T21:26:22.598Z,20.13
2022-12-12T21:29:10.723Z,18.65
2022-12-12T21:31:56.257Z,19.25
2022-12-12T21:34:41.918Z,17.73
2022-12-12T21:37:27.604Z,18.85
2022-12-12T21:40:13.590Z,19.00
2022-12-12T21:42:59.076Z,18.35
2022-12-12T21:45:44.544Z,20.35
2022-12-12T21:48:31.254Z,16.67
2022-12-12T21:51:16.815Z,18.40
2022-12-12T21:54:03.298Z,18.58
2022-12-12T21:56:49.286Z,20.08
2022-12-12T21:59:37.586Z,18.17
2022-12-12T22:02:22.866Z,18.73
2022-12-12T22:05:08.838Z,19.80
2022-12-12T22:07:54.446Z,18.05
2022-12-12T22:10:39.813Z,18.42
2022-12-12T22:13:25.451Z,17.67
2022-12-12T22:16:15.760Z,19.25
2022-12-12T22:19:05.955Z,17.98
2022-12-12T22:21:51.446Z,18.10
2022-12-12T22:24:37.187Z,18.05
2022-12-12T22:27:22.664Z,18.02
2022-12-12T22:30:08.785Z,17.67
2022-12-12T22:32:54.174Z,17.58
2022-12-12T22:35:39.768Z,16.88
2022-12-12T22:38:25.359Z,16.95
2022-12-12T22:41:11.492Z,18.10
2022-12-12T22:44:00.038Z,16.83
2022-12-12T22:46:46.531Z,17.55
2022-12-12T22:49:32.036Z,18.73
2022-12-12T22:52:17.593Z,19.67
2022-12-12T22:55:03.361Z,18.25
2022-12-12T22:57:49.047Z,18.83
2022-12-12T23:00:34.617Z,19.23
2022-12-12T23:03:20.129Z,18.38
2022-12-12T23:06:27.812Z,18.02
2022-12-12T23:09:17.545Z,18.38
2022-12-12T23:12:03.055Z,18.98
2022-12-12T23:14:48.635Z,19.17
2022-12-12T23:17:35.018Z,20.13
2022-12-12T23:20:20.618Z,19.92
2022-12-12T23:23:06.015Z,19.13
2022-12-12T23:25:51.920Z,20.38
2022-12-12T23:28:39.002Z,20.20
2022-12-12T23:31:27.269Z,20.80
2022-12-12T23:34:20.889Z,20.25
2022-12-12T23:39:52.318Z,18.77
2022-12-12T23:42:37.781Z,20.15
2022-12-12T23:45:23.381Z,22.23
2022-12-12T23:48:09.011Z,20.33
2022-12-12T23:50:55.525Z,21.17
2022-12-12T23:53:40.690Z,20.27
2022-12-12T23:56:27.569Z,19.65
2022-12-12T23:59:17.561Z,19.55
